createdAt,value
2018-03-28T00:00:52.024Z,93.86
2018-03-28T00:03:19.568Z,93.33
2018-03-28T00:05:47.100Z,93.47
2018-03-28T00:08:14.677Z,93.69
2018-03-28T00:10:42.225Z,93.53
2018-03-28T00:13:09.775Z,93.54
2018-03-28T00:15:37.299Z,93.32
2018-03-28T00:18:04.849Z,92.83
2018-03-28T00:20:32.387Z,92.86
2018-03-28T00:22:59.912Z,93.11
2018-03-28T00:25:27.473Z,93.02
2018-03-28T00:27:55.000Z,92.99
2018-03-28T00:30:22.573Z,93.07
2018-03-28T00:32:50.100Z,93.33
2018-03-28T00:35:17.653Z,92.95
2018-03-28T00:37:45.203Z,93.05
2018-03-28T00:40:12.754Z,93.09
2018-03-28T00:42:40.276Z,93.28
2018-03-28T00:45:07.837Z,92.92
2018-03-28T00:47:35.384Z,93.02
2018-03-28T00:50:02.935Z,93.12
2018-03-28T00:52:30.467Z,92.73
2018-03-28T00:54:58.054Z,92.67
2018-03-28T00:57:25.576Z,92.30
2018-03-28T00:59:53.131Z,92.20
2018-03-28T01:02:20.647Z,92.01
2018-03-28T01:04:48.196Z,92.10
2018-03-28T01:07:15.720Z,92.22
2018-03-28T01:09:43.298Z,92.23
2018-03-28T01:12:10.839Z,92.00
2018-03-28T01:14:38.388Z,92.34
2018-03-28T01:17:05.908Z,92.41
2018-03-28T01:19:34.268Z,92.67
2018-03-28T01:22:01.804Z,92.67
2018-03-28T01:24:29.373Z,92.92
2018-03-28T01:26:56.895Z,92.45
2018-03-28T01:29:24.460Z,92.87
2018-03-28T01:31:51.992Z,92.27
2018-03-28T01:34:19.551Z,92.41
2018-03-28T01:36:47.084Z,91.39
2018-03-28T01:39:14.660Z,91.44
2018-03-28T01:41:42.285Z,90.69
2018-03-28T01:44:09.832Z,90.36
2018-03-28T01:46:37.365Z,90.08
2018-03-28T01:49:04.928Z,89.82
2018-03-28T01:51:32.473Z,89.89
2018-03-28T01:54:00.020Z,90.09
2018-03-28T01:56:27.576Z,90.20
2018-03-28T01:58:55.187Z,90.27
2018-03-28T02:01:22.728Z,90.30
2018-03-28T02:03:50.244Z,90.60
2018-03-28T02:06:17.783Z,90.48
2018-03-28T02:08:45.301Z,90.21
2018-03-28T02:11:12.857Z,89.51
2018-03-28T02:13:40.387Z,90.05
2018-03-28T02:16:07.950Z,89.37
2018-03-28T02:18:35.493Z,88.72
2018-03-28T02:21:03.047Z,87.81
2018-03-28T02:23:30.560Z,87.75
2018-03-28T02:25:58.112Z,87.60
2018-03-28T02:28:25.627Z,87.54
2018-03-28T02:30:53.184Z,86.23
2018-03-28T02:33:20.709Z,86.76
2018-03-28T02:35:48.284Z,86.45
2018-03-28T02:38:15.815Z,86.73
2018-03-28T02:40:43.367Z,86.77
2018-03-28T02:43:10.890Z,87.04
2018-03-28T02:45:38.473Z,87.85
2018-03-28T02:48:05.993Z,87.51
2018-03-28T02:50:33.562Z,87.94
2018-03-28T02:53:01.076Z,87.87
2018-03-28T02:55:28.646Z,88.15
2018-03-28T02:57:56.176Z,88.76
2018-03-28T03:00:23.747Z,87.80
2018-03-28T03:02:51.265Z,87.21
2018-03-28T03:05:18.831Z,86.21
2018-03-28T03:07:46.453Z,86.28
2018-03-28T03:10:15.206Z,86.12
2018-03-28T03:12:42.723Z,86.81
2018-03-28T03:15:12.238Z,87.65
2018-03-28T03:17:39.976Z,86.94
2018-03-28T03:20:09.727Z,87.04
2018-03-28T03:22:39.203Z,86.70
2018-03-28T03:25:08.285Z,86.34
2018-03-28T03:27:37.008Z,86.49
2018-03-28T03:30:05.038Z,86.25
2018-03-28T03:32:33.084Z,85.64
2018-03-28T03:35:00.914Z,85.58
2018-03-28T03:37:30.030Z,85.80
2018-03-28T03:39:59.084Z,86.15
2018-03-28T03:42:26.969Z,85.97
2018-03-28T03:44:56.007Z,84.59
2018-03-28T03:47:23.837Z,84.88
2018-03-28T03:49:51.577Z,84.99
2018-03-28T03:52:20.855Z,83.37
2018-03-28T03:54:48.378Z,83.54
2018-03-28T03:57:15.936Z,84.10
2018-03-28T03:59:43.443Z,83.63
2018-03-28T04:02:10.999Z,84.12
2018-03-28T04:04:38.519Z,83.32
2018-03-28T04:07:06.993Z,82.96
2018-03-28T04:09:34.512Z,83.58
2018-03-28T04:12:02.068Z,83.01
2018-03-28T04:14:29.589Z,82.81
2018-03-28T04:16:57.137Z,83.11
2018-03-28T04:19:24.642Z,82.87
2018-03-28T04:21:52.207Z,82.86
2018-03-28T04:24:19.729Z,82.88
2018-03-28T04:26:47.536Z,82.28
2018-03-28T04:29:15.034Z,81.75
2018-03-28T04:31:42.583Z,82.70
2018-03-28T04:34:10.087Z,82.44
2018-03-28T04:36:38.079Z,82.35
2018-03-28T04:39:05.572Z,81.35
2018-03-28T04:41:33.123Z,82.02
2018-03-28T04:44:00.656Z,82.82
2018-03-28T04:46:28.275Z,81.79
2018-03-28T04:48:55.834Z,81.66
2018-03-28T04:51:23.382Z,82.35
2018-03-28T04:53:50.900Z,81.77
2018-03-28T04:56:18.439Z,81.27
2018-03-28T04:58:45.959Z,82.24
2018-03-28T05:01:13.505Z,80.91
2018-03-28T05:03:41.091Z,81.11
2018-03-28T05:06:08.748Z,80.65
2018-03-28T05:08:36.259Z,80.27
2018-03-28T05:11:03.823Z,80.90
2018-03-28T05:13:31.355Z,80.07
2018-03-28T05:15:58.904Z,79.74
2018-03-28T05:18:26.462Z,79.83
2018-03-28T05:20:53.988Z,79.67
2018-03-28T05:23:21.540Z,79.16
2018-03-28T05:25:49.048Z,79.60
2018-03-28T05:28:16.598Z,79.55
2018-03-28T05:30:44.122Z,79.09
2018-03-28T05:33:11.672Z,79.73
2018-03-28T05:35:39.192Z,78.64
2018-03-28T05:38:06.744Z,78.81
2018-03-28T05:40:34.248Z,78.94
2018-03-28T05:43:01.797Z,78.47
2018-03-28T05:45:31.040Z,78.69
2018-03-28T05:47:58.593Z,79.17
2018-03-28T05:50:26.141Z,79.07
2018-03-28T05:52:53.844Z,79.28
2018-03-28T05:55:21.348Z,79.65
2018-03-28T05:57:48.892Z,79.27
2018-03-28T06:00:16.413Z,79.92
2018-03-28T06:02:43.981Z,79.38
2018-03-28T06:05:11.501Z,79.30
2018-03-28T06:07:39.056Z,80.68
2018-03-28T06:10:06.566Z,79.54
2018-03-28T06:12:34.140Z,79.18
2018-03-28T06:15:01.668Z,79.83
2018-03-28T06:17:29.219Z,79.31
2018-03-28T06:19:56.731Z,79.84
2018-03-28T06:22:24.283Z,78.40
2018-03-28T06:24:51.821Z,80.17
2018-03-28T06:27:19.373Z,79.34
2018-03-28T06:29:46.883Z,79.01
2018-03-28T06:32:14.444Z,78.57
2018-03-28T06:34:41.974Z,78.92
2018-03-28T06:37:09.531Z,79.18
2018-03-28T06:39:37.076Z,78.27
2018-03-28T06:42:06.561Z,78.49
2018-03-28T06:44:34.096Z,78.49
2018-03-28T06:47:02.007Z,79.55
2018-03-28T06:49:29.588Z,78.75
2018-03-28T06:51:57.186Z,78.34
2018-03-28T06:54:24.702Z,79.76
2018-03-28T06:56:52.227Z,78.28
2018-03-28T06:59:19.776Z,78.55
2018-03-28T07:01:47.296Z,78.78
2018-03-28T07:04:14.859Z,78.97
2018-03-28T07:06:42.795Z,79.10
2018-03-28T07:09:10.501Z,78.97
2018-03-28T07:11:38.429Z,78.37
2018-03-28T07:14:05.972Z,78.27
2018-03-28T07:16:34.407Z,77.80
2018-03-28T07:19:02.080Z,77.81
2018-03-28T07:21:29.626Z,77.89
2018-03-28T07:23:57.171Z,78.06
2018-03-28T07:26:24.692Z,78.02
2018-03-28T07:28:52.240Z,78.66
2018-03-28T07:31:19.754Z,77.51
2018-03-28T07:33:47.333Z,78.55
2018-03-28T07:36:14.859Z,78.94
2018-03-28T07:38:42.413Z,77.82
2018-03-28T07:41:09.937Z,79.00
2018-03-28T07:43:37.492Z,78.18
2018-03-28T07:46:05.045Z,77.71
2018-03-28T07:48:32.615Z,78.20
2018-03-28T07:51:00.171Z,77.53
2018-03-28T07:53:27.718Z,78.31
2018-03-28T07:55:55.354Z,78.39
2018-03-28T07:58:22.908Z,77.85
2018-03-28T08:00:50.431Z,77.25
2018-03-28T08:03:17.981Z,76.36
2018-03-28T08:05:46.417Z,77.54
2018-03-28T08:08:14.107Z,77.16
2018-03-28T08:10:41.625Z,76.62
2018-03-28T08:13:09.685Z,77.17
2018-03-28T08:15:41.297Z,76.56
2018-03-28T08:18:11.894Z,76.31
2018-03-28T08:20:39.576Z,74.81
2018-03-28T08:23:07.148Z,76.18
2018-03-28T08:25:35.298Z,76.04
2018-03-28T08:28:02.951Z,75.78
2018-03-28T08:30:30.707Z,74.36
2018-03-28T08:32:58.241Z,74.36
2018-03-28T08:35:26.315Z,76.01
2018-03-28T08:37:53.902Z,75.20
2018-03-28T08:40:21.491Z,73.92
2018-03-28T08:42:48.997Z,75.98
2018-03-28T08:45:22.449Z,75.11
2018-03-28T08:47:50.333Z,73.70
2018-03-28T08:50:23.554Z,74.04
2018-03-28T08:52:51.375Z,75.14
2018-03-28T08:55:19.078Z,73.38
2018-03-28T08:57:46.768Z,73.43
2018-03-28T09:00:14.368Z,73.06
2018-03-28T09:02:42.158Z,72.67
2018-03-28T09:05:10.740Z,74.03
2018-03-28T09:07:39.480Z,73.69
2018-03-28T09:10:12.936Z,73.76
2018-03-28T09:12:41.027Z,74.02
2018-03-28T09:15:09.299Z,76.88
2018-03-28T09:17:37.152Z,74.64
2018-03-28T09:20:04.727Z,73.37
2018-03-28T09:22:32.253Z,73.47
2018-03-28T09:24:59.800Z,73.12
2018-03-28T09:27:27.568Z,72.76
2018-03-28T09:29:55.348Z,73.67
2018-03-28T09:32:26.609Z,72.85
2018-03-28T09:34:56.664Z,72.15
2018-03-28T09:37:24.378Z,72.29
2018-03-28T09:39:59.350Z,71.03
2018-03-28T09:42:31.263Z,71.95
2018-03-28T09:44:59.399Z,71.46
2018-03-28T09:47:27.152Z,73.79
2018-03-28T09:49:54.739Z,71.60
2018-03-28T09:52:26.152Z,69.69
2018-03-28T09:54:53.862Z,69.41
2018-03-28T09:57:22.017Z,69.27
2018-03-28T09:59:50.075Z,71.15
2018-03-28T10:02:17.595Z,72.16
2018-03-28T10:04:50.075Z,70.72
2018-03-28T10:07:17.603Z,69.86
2018-03-28T10:09:45.151Z,72.03
2018-03-28T10:12:12.684Z,71.73
2018-03-28T10:14:40.922Z,70.98
2018-03-28T10:17:08.514Z,71.90
2018-03-28T10:19:36.163Z,72.12
2018-03-28T10:22:03.804Z,69.78
2018-03-28T10:24:31.488Z,70.67
2018-03-28T10:26:59.106Z,69.96
2018-03-28T10:29:26.740Z,72.15
2018-03-28T10:31:54.287Z,70.84
2018-03-28T10:34:21.820Z,70.39
2018-03-28T10:36:50.111Z,71.21
2018-03-28T10:39:17.630Z,71.77
2018-03-28T10:41:45.207Z,74.22
2018-03-28T10:44:12.749Z,74.77
2018-03-28T10:46:40.559Z,75.39
2018-03-28T10:49:08.263Z,76.06
2018-03-28T10:51:36.738Z,75.60
2018-03-28T10:54:04.331Z,75.95
2018-03-28T10:56:31.905Z,77.34
2018-03-28T10:58:59.896Z,78.58
2018-03-28T11:01:27.629Z,79.41
2018-03-28T11:03:55.162Z,79.74
2018-03-28T11:06:22.699Z,80.39
2018-03-28T11:08:50.219Z,80.54
2018-03-28T11:11:17.762Z,82.68
2018-03-28T11:13:45.730Z,82.58
2018-03-28T11:16:13.433Z,82.41
2018-03-28T11:18:41.023Z,82.95
2018-03-28T11:21:08.572Z,84.36
2018-03-28T11:23:36.258Z,83.47
2018-03-28T11:26:03.800Z,83.87
2018-03-28T11:28:32.524Z,84.23
2018-03-28T11:31:00.112Z,84.88
2018-03-28T11:33:27.623Z,84.23
2018-03-28T11:35:55.164Z,84.11
2018-03-28T11:38:23.227Z,83.77
2018-03-28T11:40:50.787Z,85.68
2018-03-28T11:43:18.813Z,85.49
2018-03-28T11:45:46.464Z,85.52
2018-03-28T11:48:14.013Z,85.88
2018-03-28T11:50:48.314Z,86.02
2018-03-28T11:53:19.373Z,85.48
2018-03-28T11:58:23.596Z,86.87
2018-03-28T12:00:55.725Z,87.27
2018-03-28T12:03:27.662Z,86.73
2018-03-28T12:05:58.323Z,87.16
2018-03-28T12:08:26.458Z,87.84
2018-03-28T12:10:54.746Z,86.75
2018-03-28T12:13:22.347Z,87.82
2018-03-28T12:15:53.444Z,87.38
2018-03-28T12:18:21.065Z,87.69
2018-03-28T12:20:51.023Z,87.63
2018-03-28T12:23:24.578Z,88.10
2018-03-28T12:25:52.902Z,87.31
2018-03-28T12:28:27.948Z,87.50
2018-03-28T12:31:00.314Z,89.17
2018-03-28T12:33:28.414Z,87.77
2018-03-28T12:35:58.194Z,89.30
2018-03-28T12:38:35.425Z,87.39
2018-03-28T12:41:03.282Z,88.58
2018-03-28T12:43:35.196Z,87.89
2018-03-28T12:46:05.065Z,89.00
2018-03-28T12:48:32.918Z,88.87
2018-03-28T12:51:03.240Z,89.20
2018-03-28T12:53:33.578Z,90.30
2018-03-28T12:56:01.842Z,89.11
2018-03-28T12:58:31.548Z,90.58
2018-03-28T13:01:00.454Z,90.44
2018-03-28T13:03:28.282Z,90.51
2018-03-28T13:06:00.081Z,89.30
2018-03-28T13:08:30.827Z,90.02
2018-03-28T13:10:59.632Z,89.56
2018-03-28T13:13:27.360Z,90.72
2018-03-28T13:15:57.039Z,90.46
2018-03-28T13:18:27.596Z,91.87
2018-03-28T13:20:58.877Z,91.81
2018-03-28T13:23:30.099Z,91.98
2018-03-28T13:25:58.052Z,90.91
2018-03-28T13:28:28.297Z,91.71
2018-03-28T13:30:57.885Z,92.62
2018-03-28T13:33:29.335Z,92.99
2018-03-28T13:36:03.623Z,92.40
2018-03-28T13:38:35.385Z,92.38
2018-03-28T13:41:04.866Z,92.91
2018-03-28T13:43:32.420Z,94.34
2018-03-28T13:45:59.975Z,93.53
2018-03-28T13:48:27.715Z,92.87
2018-03-28T13:50:56.535Z,93.27
2018-03-28T13:53:29.581Z,92.92
2018-03-28T13:55:59.257Z,93.09
2018-03-28T13:58:26.991Z,93.35
2018-03-28T14:00:54.511Z,93.30
2018-03-28T14:03:22.268Z,93.40
2018-03-28T14:05:51.020Z,93.28
2018-03-28T14:08:20.164Z,93.08
2018-03-28T14:10:47.704Z,92.61
2018-03-28T14:13:15.258Z,92.94
2018-03-28T14:15:43.073Z,93.19
2018-03-28T14:18:10.624Z,93.31
2018-03-28T14:20:38.164Z,93.32
2018-03-28T14:23:05.801Z,93.20
2018-03-28T14:25:33.314Z,92.75
2018-03-28T14:28:00.961Z,91.07
2018-03-28T14:30:28.551Z,90.09
2018-03-28T14:32:56.520Z,90.45
2018-03-28T14:35:24.036Z,89.35
2018-03-28T14:37:51.595Z,90.67
2018-03-28T14:40:19.231Z,90.20
2018-03-28T14:42:54.592Z,89.36
2018-03-28T14:45:14.389Z,89.88
2018-03-28T14:47:41.936Z,89.70
2018-03-28T14:50:09.484Z,90.60
2018-03-28T14:52:37.027Z,91.42
2018-03-28T14:55:06.843Z,91.01
2018-03-28T14:57:34.402Z,90.04
2018-03-28T15:00:01.919Z,91.05
2018-03-28T15:02:29.473Z,90.55
2018-03-28T15:04:56.992Z,90.84
2018-03-28T15:07:24.571Z,89.88
2018-03-28T15:09:52.350Z,90.61
2018-03-28T15:12:19.955Z,89.66
2018-03-28T15:14:47.615Z,90.50
2018-03-28T15:17:15.963Z,90.24
2018-03-28T15:19:45.731Z,88.66
2018-03-28T15:22:13.243Z,88.42
2018-03-28T15:24:40.817Z,89.26
2018-03-28T15:27:08.340Z,88.97
2018-03-28T15:29:36.324Z,89.95
2018-03-28T15:32:03.874Z,87.69
2018-03-28T15:34:31.442Z,87.96
2018-03-28T15:36:59.084Z,88.89
2018-03-28T15:39:26.699Z,88.40
2018-03-28T15:41:54.184Z,87.83
2018-03-28T15:44:21.766Z,88.04
2018-03-28T15:46:49.279Z,89.38
2018-03-28T15:49:16.836Z,87.67
2018-03-28T15:51:44.760Z,88.66
2018-03-28T15:54:12.325Z,87.31
2018-03-28T15:56:40.246Z,87.82
2018-03-28T15:59:07.906Z,88.41
2018-03-28T16:01:35.395Z,87.06
2018-03-28T16:04:02.943Z,87.44
2018-03-28T16:06:30.471Z,85.97
2018-03-28T16:08:58.929Z,87.64
2018-03-28T16:11:26.528Z,87.06
2018-03-28T16:13:59.838Z,86.55
2018-03-28T16:16:29.529Z,87.48
2018-03-28T16:18:59.403Z,86.74
2018-03-28T16:21:28.781Z,87.77
2018-03-28T16:23:58.171Z,88.58
2018-03-28T16:26:29.084Z,88.54
2018-03-28T16:28:57.214Z,88.56
2018-03-28T16:31:27.748Z,88.55
2018-03-28T16:33:57.976Z,87.70
2018-03-28T16:36:26.318Z,87.73
2018-03-28T16:38:56.139Z,87.57
2018-03-28T16:41:24.037Z,87.79
2018-03-28T16:43:55.038Z,86.83
2018-03-28T16:46:22.712Z,87.42
2018-03-28T16:48:53.360Z,87.76
2018-03-28T16:51:24.411Z,85.57
2018-03-28T16:53:53.852Z,84.26
2018-03-28T16:56:24.225Z,85.25
2018-03-28T17:01:32.885Z,85.43
2018-03-28T17:04:03.447Z,87.22
2018-03-28T17:06:35.073Z,87.59
2018-03-28T17:09:07.148Z,88.31
2018-03-28T17:11:38.226Z,89.53
2018-03-28T17:14:08.662Z,90.64
2018-03-28T17:16:40.032Z,90.92
2018-03-28T17:19:13.873Z,91.30
2018-03-28T17:21:46.419Z,91.63
2018-03-28T17:24:18.978Z,91.47
2018-03-28T17:26:50.025Z,88.93
2018-03-28T17:29:22.282Z,86.39
2018-03-28T17:31:54.526Z,86.94
2018-03-28T17:37:04.183Z,87.17
2018-03-28T17:39:35.694Z,87.69
2018-03-28T17:42:06.188Z,88.41
2018-03-28T17:44:39.967Z,86.86
2018-03-28T17:47:12.299Z,86.96
2018-03-28T17:49:44.779Z,86.75
2018-03-28T17:52:20.905Z,88.11
2018-03-28T17:54:54.489Z,87.04
2018-03-28T17:57:27.079Z,86.95
2018-03-28T17:59:59.459Z,87.50
2018-03-28T18:02:30.939Z,87.43
2018-03-28T18:05:06.766Z,86.80
2018-03-28T18:07:39.844Z,86.68
2018-03-28T18:10:12.929Z,86.74
2018-03-28T18:12:47.141Z,86.75
2018-03-28T18:15:21.523Z,87.91
2018-03-28T18:17:53.775Z,87.44
2018-03-28T18:20:33.450Z,87.49
2018-03-28T18:23:05.750Z,88.25
2018-03-28T18:25:40.532Z,88.01
2018-03-28T18:28:12.162Z,87.37
2018-03-28T18:30:48.208Z,87.24
2018-03-28T18:33:18.504Z,85.78
2018-03-28T18:35:49.658Z,81.06
2018-03-28T18:38:21.344Z,81.58
2018-03-28T18:40:53.065Z,78.95
2018-03-28T18:43:24.159Z,80.01
2018-03-28T18:45:55.130Z,80.26
2018-03-28T18:48:27.238Z,77.68
2018-03-28T18:50:57.315Z,76.74
2018-03-28T18:53:25.061Z,76.67
2018-03-28T18:55:52.592Z,77.18
2018-03-28T18:58:20.135Z,77.85
2018-03-28T19:00:47.918Z,78.47
2018-03-28T19:03:15.540Z,77.79
2018-03-28T19:05:43.070Z,77.32
2018-03-28T19:08:11.049Z,77.19
2018-03-28T19:10:38.595Z,76.93
2018-03-28T19:13:06.290Z,76.35
2018-03-28T19:15:36.175Z,76.00
2018-03-28T19:18:04.231Z,75.85
2018-03-28T19:20:32.550Z,75.16
2018-03-28T19:23:00.648Z,76.91
2018-03-28T19:25:28.161Z,75.64
2018-03-28T19:27:55.700Z,74.94
2018-03-28T19:30:23.221Z,74.19
2018-03-28T19:32:50.771Z,74.84
2018-03-28T19:35:18.875Z,75.79
2018-03-28T19:37:46.945Z,75.69
2018-03-28T19:40:14.452Z,76.30
2018-03-28T19:42:42.104Z,76.30
2018-03-28T19:45:09.863Z,76.23
2018-03-28T19:47:37.419Z,76.08
2018-03-28T19:50:04.985Z,76.44
2018-03-28T19:52:32.510Z,76.80
2018-03-28T19:55:00.065Z,76.26
2018-03-28T19:57:27.604Z,77.47
2018-03-28T19:59:55.163Z,77.72
2018-03-28T20:02:22.673Z,77.23
2018-03-28T20:04:50.550Z,77.71
2018-03-28T20:07:19.374Z,77.04
2018-03-28T20:09:46.954Z,77.17
2018-03-28T20:12:14.563Z,77.24
2018-03-28T20:14:42.346Z,76.51
2018-03-28T20:17:10.334Z,77.03
2018-03-28T20:19:37.890Z,76.56
2018-03-28T20:22:05.888Z,76.48
2018-03-28T20:24:34.098Z,76.25
2018-03-28T20:27:01.722Z,76.85
2018-03-28T20:29:29.306Z,75.94
2018-03-28T20:31:56.824Z,77.70
2018-03-28T20:34:24.343Z,76.40
2018-03-28T20:36:51.900Z,77.37
2018-03-28T20:39:19.430Z,77.16
2018-03-28T20:41:46.982Z,78.05
2018-03-28T20:44:14.493Z,78.40
2018-03-28T20:46:42.041Z,77.87
2018-03-28T20:49:09.559Z,78.64
2018-03-28T20:51:37.122Z,77.30
2018-03-28T20:54:04.656Z,77.27
2018-03-28T20:56:32.220Z,77.28
2018-03-28T20:59:01.851Z,76.41
2018-03-28T21:01:29.427Z,77.63
2018-03-28T21:03:56.973Z,76.22
2018-03-28T21:06:24.523Z,75.77
2018-03-28T21:08:52.069Z,77.12
2018-03-28T21:11:21.358Z,76.86
2018-03-28T21:13:49.332Z,75.98
2018-03-28T21:16:16.884Z,76.77
2018-03-28T21:18:44.435Z,77.93
2018-03-28T21:21:11.938Z,76.74
2018-03-28T21:23:39.491Z,75.01
2018-03-28T21:26:07.028Z,76.05
2018-03-28T21:28:34.605Z,75.35
2018-03-28T21:31:02.120Z,75.53
2018-03-28T21:33:33.675Z,75.19
2018-03-28T21:36:04.303Z,74.08
2018-03-28T21:38:32.127Z,75.26
2018-03-28T21:40:59.659Z,75.25
2018-03-28T21:43:28.815Z,75.46
2018-03-28T21:46:00.075Z,75.49
2018-03-28T21:48:29.014Z,75.33
2018-03-28T21:50:59.871Z,75.15
2018-03-28T21:53:29.631Z,74.39
2018-03-28T21:56:00.027Z,74.08
2018-03-28T21:58:27.649Z,74.30
2018-03-28T22:00:58.051Z,75.15
2018-03-28T22:03:31.412Z,74.83
2018-03-28T22:06:04.750Z,74.09
2018-03-28T22:08:32.565Z,74.90
2018-03-28T22:11:00.314Z,75.17
2018-03-28T22:13:32.200Z,75.31
2018-03-28T22:16:00.763Z,75.83
2018-03-28T22:18:28.443Z,75.51
2018-03-28T22:20:56.908Z,75.60
2018-03-28T22:23:24.719Z,76.68
2018-03-28T22:25:52.258Z,76.84
2018-03-28T22:28:23.728Z,76.52
2018-03-28T22:30:52.111Z,77.27
2018-03-28T22:33:20.292Z,76.44
2018-03-28T22:35:47.938Z,76.54
2018-03-28T22:38:16.193Z,77.05
2018-03-28T22:40:44.575Z,77.36
2018-03-28T22:43:13.556Z,76.82
2018-03-28T22:45:45.616Z,76.33
2018-03-28T22:48:13.364Z,76.47
2018-03-28T22:50:41.695Z,74.60
2018-03-28T22:53:09.299Z,74.41
2018-03-28T22:55:36.840Z,73.49
2018-03-28T22:58:04.392Z,73.49
2018-03-28T23:00:31.944Z,72.80
2018-03-28T23:02:59.463Z,72.00
2018-03-28T23:05:28.496Z,73.61
2018-03-28T23:07:56.278Z,72.53
2018-03-28T23:10:24.669Z,71.74
2018-03-28T23:12:53.169Z,71.34
2018-03-28T23:15:22.100Z,71.11
2018-03-28T23:17:54.922Z,71.50
2018-03-28T23:20:25.909Z,71.82
2018-03-28T23:22:54.639Z,72.27
2018-03-28T23:25:22.169Z,72.39
2018-03-28T23:27:52.625Z,73.29
2018-03-28T23:30:22.957Z,72.73
2018-03-28T23:32:51.638Z,72.81
2018-03-28T23:35:19.769Z,73.18
2018-03-28T23:37:47.871Z,73.17
2018-03-28T23:40:16.501Z,73.26
2018-03-28T23:42:46.385Z,73.13
2018-03-28T23:45:14.491Z,72.60
2018-03-28T23:47:42.705Z,73.62
2018-03-28T23:50:12.080Z,74.16
2018-03-28T23:52:39.600Z,73.62
2018-03-28T23:55:11.643Z,74.12
2018-03-28T23:57:39.305Z,75.00
